Time;durP1;ratioP1;P1;durP2;ratioP2;P2;SDS_P1;SDS_P2;PMS_P1;PMS_P2;Temp;Humidity;BMP_temperature;BMP_pressure;BME280_temperature;BME280_humidity;BME280_pressure;Samples;Min_cycle;Max_cycle;Signal;HPM_P1;HPM_P2
2022/12/07 00:01:21;;;;;;;15.10;9.77;;;;;;;3.58;100.00;101795.78;5058675;28;20032;-62
2022/12/07 00:03:48;;;;;;;17.08;9.13;;;;;;;3.57;100.00;101794.88;5047993;28;20072;-62
2022/12/07 00:06:16;;;;;;;15.73;8.98;;;;;;;3.57;100.00;101791.41;5061253;28;20108;-62
2022/12/07 00:08:42;;;;;;;12.98;8.98;;;;;;;3.56;100.00;101790.50;5054398;28;20092;-63
2022/12/07 00:11:14;;;;;;;14.13;8.88;;;;;;;3.55;100.00;101792.97;5063174;28;20047;-62
2022/12/07 00:13:40;;;;;;;13.95;9.45;;;;;;;3.52;100.00;101795.34;5062821;28;20099;-62
2022/12/07 00:16:08;;;;;;;13.60;8.90;;;;;;;3.51;100.00;101791.03;5056362;28;20052;-68
2022/12/07 00:18:34;;;;;;;14.57;9.05;;;;;;;3.50;100.00;101786.66;5049649;28;20029;-68
2022/12/07 00:21:05;;;;;;;15.18;9.52;;;;;;;3.50;100.00;101782.38;5048027;28;20048;-68
2022/12/07 00:23:30;;;;;;;14.05;9.23;;;;;;;3.52;100.00;101780.81;5048299;28;20021;-68
2022/12/07 00:25:56;;;;;;;13.98;9.55;;;;;;;3.53;100.00;101781.69;5041502;28;20049;-68
2022/12/07 00:28:21;;;;;;;13.98;9.18;;;;;;;3.52;100.00;101775.66;5042615;28;20449;-68
2022/12/07 00:30:46;;;;;;;13.25;9.20;;;;;;;3.49;100.00;101775.47;5041005;28;20033;-68
2022/12/07 00:33:12;;;;;;;12.38;8.50;;;;;;;3.48;100.00;101773.66;5044949;28;20180;-68
2022/12/07 00:35:37;;;;;;;13.05;8.65;;;;;;;3.47;100.00;101765.03;5045239;28;20138;-68
2022/12/07 00:38:02;;;;;;;15.23;9.20;;;;;;;3.45;100.00;101764.03;5045892;28;20209;-68
2022/12/07 00:40:28;;;;;;;14.68;8.65;;;;;;;3.45;100.00;101763.16;5045295;28;20149;-68
2022/12/07 00:42:53;;;;;;;14.05;9.07;;;;;;;3.44;100.00;101772.53;5045972;28;20021;-68
2022/12/07 00:45:18;;;;;;;12.68;8.88;;;;;;;3.41;100.00;101769.75;5044628;28;20041;-68
2022/12/07 00:47:43;;;;;;;14.57;9.13;;;;;;;3.36;100.00;101777.97;5047538;28;20040;-68
2022/12/07 00:50:09;;;;;;;12.85;9.13;;;;;;;3.33;100.00;101781.22;5055787;28;20033;-68
2022/12/07 00:52:34;;;;;;;16.23;9.60;;;;;;;3.34;100.00;101777.00;5053372;28;20298;-68
2022/12/07 00:54:59;;;;;;;14.43;8.70;;;;;;;3.31;100.00;101769.94;5063359;28;20171;-68
2022/12/07 00:57:25;;;;;;;13.32;9.40;;;;;;;3.30;100.00;101773.28;5058837;28;20025;-68
2022/12/07 00:59:50;;;;;;;14.65;8.98;;;;;;;3.28;100.00;101773.19;5036078;28;20056;-68
2022/12/07 01:02:15;;;;;;;14.13;9.05;;;;;;;3.24;100.00;101768.63;5052328;28;20096;-68
2022/12/07 01:04:40;;;;;;;16.80;9.73;;;;;;;3.22;100.00;101766.75;5060221;28;20021;-68
2022/12/07 01:07:06;;;;;;;16.27;9.48;;;;;;;3.18;100.00;101760.47;5054147;28;20319;-68
2022/12/07 01:09:31;;;;;;;13.63;9.05;;;;;;;3.14;100.00;101766.19;5053729;28;20044;-68
2022/12/07 01:11:56;;;;;;;14.20;9.07;;;;;;;3.11;100.00;101760.84;5063157;28;20029;-68
2022/12/07 01:14:22;;;;;;;13.00;8.57;;;;;;;3.10;100.00;101770.25;5057283;28;20043;-68
2022/12/07 01:16:47;;;;;;;12.40;8.50;;;;;;;3.09;100.00;101763.31;5056612;28;20017;-68
2022/12/07 01:19:12;;;;;;;13.18;8.75;;;;;;;3.10;100.00;101765.13;5045976;28;20128;-68
2022/12/07 01:21:38;;;;;;;13.95;8.68;;;;;;;3.08;100.00;101766.69;5053686;28;20283;-68
2022/12/07 01:24:06;;;;;;;15.52;8.93;;;;;;;3.09;100.00;101773.63;5051222;28;20045;-68
2022/12/07 01:26:31;;;;;;;13.02;8.35;;;;;;;3.08;100.00;101766.69;5042401;28;20083;-68
2022/12/07 01:28:58;;;;;;;12.50;7.88;;;;;;;3.10;100.00;101769.34;5044185;28;20045;-68
2022/12/07 01:31:25;;;;;;;15.18;8.95;;;;;;;3.10;100.00;101774.50;5042885;28;20017;-68
2022/12/07 01:33:53;;;;;;;13.65;9.00;;;;;;;3.09;100.00;101771.03;5045306;28;20029;-68
2022/12/07 01:36:22;;;;;;;12.35;8.20;;;;;;;3.08;100.00;101784.69;5044261;28;20029;-68
2022/12/07 01:38:52;;;;;;;11.77;8.27;;;;;;;3.08;100.00;101776.09;5042910;28;20045;-68
2022/12/07 01:41:17;;;;;;;11.90;8.60;;;;;;;3.08;100.00;101776.09;5049350;28;20290;-68
2022/12/07 01:44:24;;;;;;;13.77;8.77;;;;;;;3.10;100.00;101774.50;5054018;28;20026;-68
2022/12/07 01:46:52;;;;;;;11.90;8.30;;;;;;;3.09;100.00;101768.47;5012723;28;20056;-68
2022/12/07 01:49:26;;;;;;;14.30;8.85;;;;;;;3.10;100.00;101767.69;5044880;28;20231;-68
2022/12/07 01:51:58;;;;;;;13.73;8.05;;;;;;;3.11;100.00;101769.50;5040367;28;20149;-68
2022/12/07 01:54:25;;;;;;;15.32;8.57;;;;;;;3.12;100.00;101771.25;5046166;28;20133;-68
2022/12/07 01:56:54;;;;;;;13.25;7.97;;;;;;;3.13;100.00;101769.59;5048259;28;20087;-68
2022/12/07 01:59:24;;;;;;;13.93;8.70;;;;;;;3.15;100.00;101765.44;5052437;28;20362;-68
2022/12/07 02:01:49;;;;;;;15.30;8.60;;;;;;;3.16;100.00;101759.50;5056032;28;20067;-69
2022/12/07 02:04:15;;;;;;;13.57;8.77;;;;;;;3.17;100.00;101757.81;5046089;28;20092;-69
2022/12/07 02:06:41;;;;;;;14.52;9.00;;;;;;;3.17;100.00;101761.25;5052883;28;20079;-68
2022/12/07 02:09:07;;;;;;;12.30;8.27;;;;;;;3.15;100.00;101752.56;5043378;28;20051;-69
2022/12/07 02:11:32;;;;;;;14.35;8.52;;;;;;;3.15;100.00;101755.13;5043754;28;20049;-69
2022/12/07 02:13:58;;;;;;;11.52;8.05;;;;;;;3.15;100.00;101761.97;5047720;28;20024;-69
2022/12/07 02:16:29;;;;;;;11.50;8.27;;;;;;;3.12;100.00;101757.50;5053556;28;20072;-62
2022/12/07 02:19:04;;;;;;;12.68;8.23;;;;;;;3.10;100.00;101762.53;5048569;28;20038;-62
2022/12/07 02:22:03;;;;;;;13.95;8.68;;;;;;;3.09;100.00;101754.72;5055185;28;20108;-63
2022/12/07 02:24:48;;;;;;;11.85;7.88;;;;;;;3.09;100.00;101765.00;4996869;28;20064;-62
2022/12/07 02:27:51;;;;;;;12.27;8.48;;;;;;;3.06;100.00;101759.66;5040938;28;20037;-62
2022/12/07 02:30:21;;;;;;;10.95;7.63;;;;;;;3.02;100.00;101755.97;5044624;28;20163;-62
2022/12/07 02:33:04;;;;;;;14.15;8.55;;;;;;;3.00;100.00;101757.56;5044576;28;20029;-62
2022/12/07 02:35:36;;;;;;;13.43;8.55;;;;;;;2.99;100.00;101762.59;5040850;28;20049;-63
2022/12/07 02:38:18;;;;;;;13.43;8.40;;;;;;;2.96;100.00;101755.53;5041933;28;20046;-62
2022/12/07 02:40:52;;;;;;;13.57;8.38;;;;;;;2.93;100.00;101745.94;5040631;28;20053;-63
2022/12/07 02:43:27;;;;;;;11.40;7.80;;;;;;;2.92;100.00;101754.44;5042666;28;20167;-62
2022/12/07 02:45:57;;;;;;;12.32;7.93;;;;;;;2.91;100.00;101750.09;5043493;28;20037;-62
2022/12/07 02:48:23;;;;;;;12.82;8.40;;;;;;;2.90;100.00;101750.88;5046976;28;21235;-62
2022/12/07 02:50:51;;;;;;;11.50;8.13;;;;;;;2.91;100.00;101756.91;5043000;28;20048;-62
2022/12/07 02:53:36;;;;;;;11.55;8.07;;;;;;;2.91;100.00;101757.81;5040987;28;20032;-62
2022/12/07 02:56:47;;;;;;;11.57;8.18;;;;;;;2.93;100.00;101756.22;5048184;28;20045;-62
2022/12/07 02:59:30;;;;;;;13.25;8.25;;;;;;;2.94;100.00;101758.03;5045665;28;20263;-63
2022/12/07 03:02:17;;;;;;;14.05;8.30;;;;;;;2.93;100.00;101751.06;5053973;28;20041;-62
2022/12/07 03:05:08;;;;;;;12.52;8.13;;;;;;;2.93;100.00;101752.75;5056482;28;20048;-62
2022/12/07 03:07:33;;;;;;;13.60;8.10;;;;;;;2.93;100.00;101753.66;5055979;28;20233;-62
2022/12/07 03:10:07;;;;;;;12.65;7.82;;;;;;;2.94;100.00;101760.59;5057581;28;20129;-62
2022/12/07 03:12:49;;;;;;;12.75;8.20;;;;;;;2.93;100.00;101751.06;5056861;28;20083;-62
2022/12/07 03:15:21;;;;;;;12.93;7.35;;;;;;;2.94;100.00;101751.97;5052246;28;20064;-62
2022/12/07 03:17:49;;;;;;;12.30;7.63;;;;;;;2.92;100.00;101756.13;5054101;28;20240;-62
2022/12/07 03:20:19;;;;;;;10.15;7.30;;;;;;;2.91;100.00;101762.03;5043284;28;20033;-62
2022/12/07 03:22:46;;;;;;;10.10;6.88;;;;;;;2.92;100.00;101753.53;5053083;28;20157;-62
2022/12/07 03:25:15;;;;;;;10.98;7.38;;;;;;;2.93;100.00;101752.75;5048917;28;20093;-62
2022/12/07 03:28:04;;;;;;;11.60;7.20;;;;;;;2.94;100.00;101747.72;5044400;28;20026;-68
2022/12/07 03:30:34;;;;;;;;;;;;;;;2.98;100.00;101751.38;5055880;28;20025;-68
2022/12/07 03:33:08;;;;;;;11.38;7.05;;;;;;;2.91;100.00;101754.31;5054917;28;19920;-68
2022/12/07 03:35:40;;;;;;;11.25;6.78;;;;;;;2.88;100.00;101757.59;5041204;28;20020;-68
2022/12/07 03:38:17;;;;;;;13.10;7.60;;;;;;;2.87;100.00;101755.81;5040941;28;20080;-68
2022/12/07 03:41:05;;;;;;;12.20;7.82;;;;;;;2.86;100.00;101755.69;5040330;28;20067;-68
2022/12/07 03:43:31;;;;;;;9.63;7.18;;;;;;;2.82;100.00;101748.53;5045882;28;20350;-69
2022/12/07 03:46:29;;;;;;;12.15;7.68;;;;;;;2.82;100.00;101753.69;5040853;28;20287;-69
2022/12/07 03:49:20;;;;;;;12.55;7.10;;;;;;;2.84;100.00;101745.31;5042175;28;20087;-68
2022/12/07 03:52:09;;;;;;;11.52;7.15;;;;;;;2.86;100.00;101750.56;5036928;28;20057;-68
2022/12/07 03:54:44;;;;;;;11.40;6.55;;;;;;;2.86;100.00;101743.72;5042997;28;20152;-68
2022/12/07 03:57:11;;;;;;;12.98;7.43;;;;;;;2.88;100.00;101742.16;5045870;28;20036;-68
2022/12/07 03:59:38;;;;;;;11.07;7.07;;;;;;;2.91;100.00;101739.78;5046289;28;20048;-68
2022/12/07 04:02:06;;;;;;;12.90;6.95;;;;;;;2.95;100.00;101746.03;5041213;28;20040;-68
2022/12/07 04:04:32;;;;;;;12.45;7.00;;;;;;;2.97;100.00;101739.31;5057454;28;20029;-68
2022/12/07 04:06:57;;;;;;;14.43;6.97;;;;;;;3.00;100.00;101741.19;5064790;28;20040;-68
2022/12/07 04:09:23;;;;;;;10.13;6.68;;;;;;;3.03;100.00;101742.31;5044849;28;20021;-68
2022/12/07 04:11:48;;;;;;;10.15;6.13;;;;;;;3.06;100.00;101749.34;5059232;28;20033;-69
2022/12/07 04:14:20;;;;;;;12.52;6.25;;;;;;;3.06;100.00;101746.78;5049623;28;20056;-69
2022/12/07 04:16:50;;;;;;;9.15;5.80;;;;;;;3.06;100.00;101747.66;5051467;28;20047;-69
2022/12/07 04:19:18;;;;;;;11.20;6.03;;;;;;;3.08;100.00;101745.19;5054406;28;20037;-68
2022/12/07 04:21:43;;;;;;;10.50;6.18;;;;;;;3.08;100.00;101751.22;5055100;28;20041;-69
2022/12/07 04:24:09;;;;;;;9.50;5.43;;;;;;;3.08;100.00;101746.06;5057279;28;20102;-69
2022/12/07 04:26:34;;;;;;;9.82;5.95;;;;;;;3.09;100.00;101749.56;5060197;28;20029;-68
2022/12/07 04:28:59;;;;;;;9.30;5.53;;;;;;;3.09;100.00;101749.56;5053607;28;20098;-68
2022/12/07 04:31:25;;;;;;;10.90;5.80;;;;;;;3.09;100.00;101741.84;5059773;28;20175;-68
2022/12/07 04:33:50;;;;;;;11.75;5.70;;;;;;;3.10;100.00;101741.03;5046830;28;20045;-68
2022/12/07 04:36:16;;;;;;;10.43;5.95;;;;;;;3.11;100.00;101738.59;5055171;28;20029;-68
2022/12/07 04:38:41;;;;;;;10.27;5.78;;;;;;;3.13;100.00;101730.97;5058420;28;20033;-69
2022/12/07 04:41:08;;;;;;;10.13;5.97;;;;;;;3.15;100.00;101736.22;5054747;28;20048;-68
2022/12/07 04:43:34;;;;;;;11.02;5.85;;;;;;;3.16;100.00;101733.75;5054006;28;20333;-68
2022/12/07 04:45:59;;;;;;;9.60;5.85;;;;;;;3.16;100.00;101728.59;5058224;28;20049;-68
2022/12/07 04:48:24;;;;;;;11.85;5.88;;;;;;;3.18;100.00;101729.56;5049933;28;20029;-69
2022/12/07 04:50:50;;;;;;;11.07;6.25;;;;;;;3.17;100.00;101730.34;5057384;28;20075;-68
2022/12/07 04:53:15;;;;;;;10.10;6.05;;;;;;;3.17;100.00;101730.34;5053484;28;20051;-69
2022/12/07 04:55:41;;;;;;;11.20;6.53;;;;;;;3.17;100.00;101735.50;5056937;28;20114;-69
2022/12/07 04:58:06;;;;;;;13.15;6.60;;;;;;;3.16;100.00;101731.16;5050723;28;20036;-69
2022/12/07 05:00:31;;;;;;;11.25;6.85;;;;;;;3.15;100.00;101725.91;5053496;28;20130;-68
2022/12/07 05:02:56;;;;;;;12.75;6.88;;;;;;;3.13;100.00;101728.38;5056818;28;20111;-68
2022/12/07 05:05:22;;;;;;;10.88;7.30;;;;;;;3.12;100.00;101727.47;5055300;28;20024;-68
2022/12/07 05:07:47;;;;;;;11.98;7.40;;;;;;;3.12;100.00;101721.44;5061553;28;20048;-68
2022/12/07 05:10:12;;;;;;;12.95;7.72;;;;;;;3.10;100.00;101718.78;5062349;28;20033;-69
2022/12/07 05:12:38;;;;;;;10.80;7.38;;;;;;;3.11;100.00;101719.66;5053832;28;20222;-68
2022/12/07 05:15:04;;;;;;;13.68;7.60;;;;;;;3.11;100.00;101722.22;5052991;28;20078;-69
2022/12/07 05:17:29;;;;;;;10.85;7.22;;;;;;;3.13;100.00;101718.97;5053840;28;20029;-69
2022/12/07 05:19:54;;;;;;;11.25;7.57;;;;;;;3.14;100.00;101730.16;5055027;28;20304;-68
2022/12/07 05:22:20;;;;;;;11.07;7.25;;;;;;;3.13;100.00;101718.97;5056938;28;20044;-68
2022/12/07 05:24:45;;;;;;;11.52;7.20;;;;;;;3.15;100.00;101721.66;5050747;28;20029;-68
2022/12/07 05:27:10;;;;;;;10.95;7.75;;;;;;;3.15;100.00;101721.66;5051278;28;20027;-62
2022/12/07 05:29:36;;;;;;;11.77;7.60;;;;;;;3.15;100.00;101720.75;5060672;28;20354;-62
2022/12/07 05:32:01;;;;;;;13.77;7.35;;;;;;;3.15;100.00;101725.91;5060133;28;20104;-62
2022/12/07 05:34:26;;;;;;;11.95;7.40;;;;;;;3.13;100.00;101724.13;5062071;28;20043;-62
2022/12/07 05:36:51;;;;;;;10.88;7.57;;;;;;;3.13;100.00;101724.13;5046086;28;20032;-62
2022/12/07 05:39:17;;;;;;;12.13;7.40;;;;;;;3.11;100.00;101720.56;5051561;28;20675;-62
2022/12/07 05:44:37;;;;;;;9.55;7.00;;;;;;;3.11;100.00;101717.06;5043165;28;20080;-62
2022/12/07 05:47:02;;;;;;;13.10;6.78;;;;;;;3.07;100.00;101717.66;5048386;28;20032;-62
2022/12/07 05:49:27;;;;;;;11.40;6.53;;;;;;;3.04;100.00;101710.63;5042296;28;20067;-62
2022/12/07 05:51:52;;;;;;;12.57;6.57;;;;;;;3.03;100.00;101710.53;5044794;28;20021;-64
2022/12/07 05:54:18;;;;;;;11.35;6.60;;;;;;;2.98;100.00;101706.75;5046146;28;20239;-62
2022/12/07 05:56:43;;;;;;;10.60;6.18;;;;;;;2.95;100.00;101712.56;5042993;28;20299;-62
2022/12/07 05:59:25;;;;;;;11.57;6.80;;;;;;;2.94;100.00;101701.38;5044430;28;20089;-63
2022/12/07 06:01:59;;;;;;;9.38;6.28;;;;;;;2.94;100.00;101703.97;5045691;28;20025;-62
2022/12/07 06:04:29;;;;;;;12.10;6.25;;;;;;;2.93;100.00;101712.47;5043298;28;20037;-62
2022/12/07 06:06:54;;;;;;;12.02;6.70;;;;;;;2.94;100.00;101711.69;5044987;28;20047;-62
2022/12/07 06:09:21;;;;;;;10.77;6.28;;;;;;;2.93;100.00;101715.03;5046133;28;20037;-62
2022/12/07 06:14:31;;;;;;;11.30;6.13;;;;;;;2.88;100.00;101708.69;5055410;28;20079;-62
2022/12/07 06:16:57;;;;;;;9.45;6.03;;;;;;;2.88;100.00;101716.41;5057431;28;20025;-62
2022/12/07 06:19:22;;;;;;;9.35;6.03;;;;;;;2.88;100.00;101718.06;5062112;28;20032;-63
2022/12/07 06:21:47;;;;;;;9.85;6.22;;;;;;;2.87;100.00;101719.78;5052447;28;20048;-62
2022/12/07 06:24:14;;;;;;;9.32;6.13;;;;;;;2.86;100.00;101722.25;5053633;28;20070;-62
2022/12/07 06:26:39;;;;;;;10.73;6.22;;;;;;;2.84;100.00;101713.50;5055371;28;20029;-62
2022/12/07 06:29:05;;;;;;;12.60;6.95;;;;;;;2.83;100.00;101722.03;5049164;28;20037;-62
2022/12/07 06:31:31;;;;;;;11.25;6.68;;;;;;;2.82;100.00;101721.13;5056154;28;20056;-62
2022/12/07 06:34:01;;;;;;;10.90;6.60;;;;;;;2.81;100.00;101723.59;5052780;28;20027;-62
2022/12/07 06:36:27;;;;;;;10.65;6.72;;;;;;;2.80;100.00;101720.13;5060011;28;20036;-68
2022/12/07 06:38:53;;;;;;;9.85;6.30;;;;;;;2.79;100.00;101731.22;5048326;28;20037;-68
2022/12/07 06:41:18;;;;;;;9.48;6.40;;;;;;;2.81;100.00;101727.06;5049787;28;20100;-68
2022/12/07 06:43:43;;;;;;;9.90;6.28;;;;;;;2.80;100.00;101724.41;5052047;28;20171;-68
2022/12/07 06:46:09;;;;;;;10.07;6.53;;;;;;;2.80;100.00;101722.72;5054235;28;20120;-69
2022/12/07 06:48:34;;;;;;;8.75;5.95;;;;;;;2.81;100.00;101726.16;5045013;28;20026;-69
2022/12/07 06:50:59;;;;;;;10.90;6.18;;;;;;;2.81;100.00;101716.78;5055206;28;20172;-68
2022/12/07 06:53:25;;;;;;;12.55;6.60;;;;;;;2.82;100.00;101721.13;5047420;28;20055;-68
2022/12/07 06:55:50;;;;;;;12.10;6.25;;;;;;;2.81;100.00;101713.28;5049632;28;20207;-69
2022/12/07 06:58:17;;;;;;;11.55;5.97;;;;;;;2.81;100.00;101718.44;5054187;28;20032;-69
2022/12/07 07:00:43;;;;;;;10.80;6.70;;;;;;;2.80;100.00;101721.81;5057911;28;20048;-69
2022/12/07 07:03:08;;;;;;;10.13;6.32;;;;;;;2.80;100.00;101715.00;5044608;28;20028;-68
2022/12/07 07:05:34;;;;;;;9.75;6.43;;;;;;;2.78;100.00;101714.88;5051686;28;20070;-68
2022/12/07 07:07:59;;;;;;;10.52;6.13;;;;;;;2.79;100.00;101718.34;5053592;28;20141;-69
2022/12/07 07:10:24;;;;;;;10.88;6.13;;;;;;;2.78;100.00;101722.59;5059910;28;20033;-69
2022/12/07 07:12:50;;;;;;;11.30;6.18;;;;;;;2.76;100.00;101726.72;5053062;28;20211;-69
2022/12/07 07:15:15;;;;;;;9.30;6.22;;;;;;;2.76;100.00;101736.16;5052501;28;20049;-69
2022/12/07 07:17:40;;;;;;;10.35;7.00;;;;;;;2.75;100.00;101732.69;5042349;28;20143;-69
2022/12/07 07:20:06;;;;;;;9.70;6.13;;;;;;;2.75;100.00;101729.19;5049064;28;20039;-69
2022/12/07 07:22:31;;;;;;;9.95;6.38;;;;;;;2.75;100.00;101729.19;5055656;28;20095;-69
2022/12/07 07:24:57;;;;;;;11.32;6.22;;;;;;;2.75;100.00;101735.25;5054910;28;20078;-68
2022/12/07 07:27:22;;;;;;;10.20;6.32;;;;;;;2.73;100.00;101736.81;5050666;28;20022;-69
2022/12/07 07:29:47;;;;;;;8.88;6.25;;;;;;;2.71;100.00;101728.13;5051529;28;20021;-69
2022/12/07 07:32:13;;;;;;;10.73;6.40;;;;;;;2.70;100.00;101738.31;5046704;28;20029;-69
2022/12/07 07:34:39;;;;;;;8.15;5.95;;;;;;;2.66;100.00;101733.72;5041649;28;20041;-69
2022/12/07 07:37:04;;;;;;;10.15;6.43;;;;;;;2.63;100.00;101731.81;5044041;28;20041;-68
2022/12/07 07:39:29;;;;;;;11.10;6.28;;;;;;;2.61;100.00;101734.28;5026392;28;20023;-69
2022/12/07 07:41:55;;;;;;;9.98;6.38;;;;;;;2.60;100.00;101727.34;5049370;28;20031;-69
2022/12/07 07:44:20;;;;;;;10.65;7.05;;;;;;;2.60;100.00;101729.91;5048963;28;20095;-69
2022/12/07 07:46:45;;;;;;;12.02;6.38;;;;;;;2.61;100.00;101726.56;5049768;28;20112;-69
2022/12/07 07:49:11;;;;;;;11.07;6.53;;;;;;;2.61;100.00;101725.69;5047910;28;20036;-69
2022/12/07 07:51:36;;;;;;;9.70;6.28;;;;;;;2.61;100.00;101735.97;5031259;28;20049;-69
2022/12/07 07:54:02;;;;;;;11.15;6.43;;;;;;;2.61;100.00;101736.84;5048150;28;20025;-69
2022/12/07 07:56:28;;;;;;;11.15;5.97;;;;;;;2.61;100.00;101741.13;5048662;28;20017;-69
2022/12/07 07:58:54;;;;;;;10.52;6.55;;;;;;;2.62;100.00;101727.44;5042910;28;20020;-68
2022/12/07 08:01:19;;;;;;;11.90;6.28;;;;;;;2.65;100.00;101737.06;5046869;28;20038;-69
2022/12/07 08:03:46;;;;;;;10.13;6.53;;;;;;;2.65;100.00;101732.84;5049713;28;20028;-69
2022/12/07 08:06:12;;;;;;;12.00;6.90;;;;;;;2.67;100.00;101738.09;5053024;28;20081;-69
2022/12/07 08:08:37;;;;;;;11.43;6.32;;;;;;;2.66;100.00;101734.59;5052125;28;20041;-68
2022/12/07 08:11:06;;;;;;;12.43;6.70;;;;;;;2.63;100.00;101736.97;5058993;28;20055;-69
2022/12/07 08:13:31;;;;;;;11.27;6.95;;;;;;;2.63;100.00;101743.81;5059601;28;20072;-69
2022/12/07 08:15:57;;;;;;;11.00;6.65;;;;;;;2.58;100.00;101736.66;5045230;28;20088;-68
2022/12/07 08:18:22;;;;;;;10.30;6.40;;;;;;;2.56;100.00;101747.59;5056067;28;20048;-68
2022/12/07 08:20:47;;;;;;;8.80;6.53;;;;;;;2.52;100.00;101743.94;5057348;28;20080;-68
2022/12/07 08:23:12;;;;;;;8.63;6.20;;;;;;;2.49;100.00;101751.44;5049752;28;20044;-70
2022/12/07 08:25:38;;;;;;;10.43;6.47;;;;;;;2.47;100.00;101753.00;5062015;28;20091;-68
2022/12/07 08:28:03;;;;;;;10.82;6.53;;;;;;;2.47;100.00;101757.25;5058560;28;20087;-68
2022/12/07 08:30:29;;;;;;;9.52;6.43;;;;;;;2.45;100.00;101754.59;5050865;28;20083;-68
2022/12/07 08:32:55;;;;;;;10.00;5.82;;;;;;;2.46;100.00;101758.03;5047931;28;20272;-68
2022/12/07 08:35:20;;;;;;;12.13;6.70;;;;;;;2.49;100.00;101760.81;5053570;28;20056;-69
2022/12/07 08:37:46;;;;;;;11.73;6.97;;;;;;;2.53;100.00;101757.69;5058202;28;20025;-69
2022/12/07 08:40:15;;;;;;;12.10;7.82;;;;;;;2.56;100.00;101757.91;5045017;28;20045;-69
2022/12/07 08:42:42;;;;;;;9.80;6.65;;;;;;;2.60;100.00;101768.50;5054343;28;20033;-69
2022/12/07 08:45:10;;;;;;;11.27;7.28;;;;;;;2.65;100.00;101762.81;5056208;28;20061;-69
2022/12/07 08:47:38;;;;;;;11.82;6.90;;;;;;;2.69;100.00;101765.69;5053795;28;20028;-69
2022/12/07 08:50:06;;;;;;;12.70;6.63;;;;;;;2.72;100.00;101758.22;5059356;28;20037;-69
2022/12/07 08:52:34;;;;;;;12.55;6.60;;;;;;;2.77;100.00;101755.97;5050962;28;20051;-68
2022/12/07 08:55:00;;;;;;;9.48;6.25;;;;;;;2.79;100.00;101759.53;5049835;28;20057;-68
2022/12/07 08:57:27;;;;;;;11.70;6.07;;;;;;;2.82;100.00;101749.44;5052939;28;20405;-69
2022/12/07 08:59:53;;;;;;;11.85;6.18;;;;;;;2.85;100.00;101754.78;5047415;28;20071;-69
2022/12/07 09:02:18;;;;;;;8.18;5.80;;;;;;;2.88;100.00;101746.38;5045919;28;20029;-69
2022/12/07 09:04:44;;;;;;;11.38;5.80;;;;;;;2.92;100.00;101748.41;5054926;28;20760;-69
2022/12/07 09:07:09;;;;;;;15.52;6.93;;;;;;;2.96;100.00;101756.44;5059965;28;20112;-69
2022/12/07 09:09:34;;;;;;;9.88;5.50;;;;;;;3.00;100.00;101742.09;5058778;28;20561;-69
2022/12/07 09:12:00;;;;;;;8.43;4.82;;;;;;;3.04;100.00;101743.19;5051284;28;20160;-69
2022/12/07 09:14:25;;;;;;;10.73;5.43;;;;;;;3.07;100.00;101748.53;5052605;28;20052;-68
2022/12/07 09:16:50;;;;;;;9.52;5.30;;;;;;;3.11;100.00;101746.31;5055738;28;20048;-68
2022/12/07 09:19:16;;;;;;;9.95;6.28;;;;;;;3.15;100.00;101739.69;5048412;28;20029;-68
2022/12/07 09:21:42;;;;;;;11.15;5.10;;;;;;;3.19;100.00;101743.38;5052698;28;20033;-68
2022/12/07 09:24:08;;;;;;;8.63;5.30;;;;;;;3.22;100.00;101741.00;5047567;28;20044;-68
2022/12/07 09:26:35;;;;;;;13.85;5.50;;;;;;;3.24;100.00;101742.84;5055400;28;20079;-68
2022/12/07 09:29:00;;;;;;;11.15;5.10;;;;;;;3.27;100.00;101739.59;5054295;28;20029;-68
2022/12/07 09:31:26;;;;;;;7.53;5.50;;;;;;;3.30;100.00;101747.53;5043810;28;20040;-68
2022/12/07 09:33:59;;;;;;;8.32;4.90;;;;;;;3.31;100.00;101755.38;5046848;28;20341;-68
2022/12/07 09:36:25;;;;;;;10.70;4.82;;;;;;;3.31;100.00;101754.47;5049205;28;20053;-68
2022/12/07 09:38:51;;;;;;;11.00;4.85;;;;;;;3.29;100.00;101758.66;5057000;28;20040;-68
2022/12/07 09:41:16;;;;;;;10.05;5.10;;;;;;;3.28;100.00;101759.44;5061463;28;20230;-68
2022/12/07 09:43:42;;;;;;;9.40;5.22;;;;;;;3.29;100.00;101767.25;5052035;28;20097;-68
2022/12/07 09:46:15;;;;;;;11.40;5.63;;;;;;;3.28;100.00;101755.16;5043420;28;20098;-67
2022/12/07 09:48:42;;;;;;;9.75;5.55;;;;;;;3.30;100.00;101753.59;5052210;28;20022;-68
2022/12/07 09:51:17;;;;;;;9.95;5.78;;;;;;;3.34;100.00;101749.53;5062352;28;20138;-68
2022/12/07 09:53:44;;;;;;;12.40;7.00;;;;;;;3.37;100.00;101749.75;5061956;28;20055;-68
2022/12/07 09:56:18;;;;;;;12.75;7.18;;;;;;;3.42;100.00;101756.09;5054022;28;20264;-68
2022/12/07 09:58:44;;;;;;;10.98;5.53;;;;;;;3.47;100.00;101757.28;5051840;28;20013;-68
2022/12/07 10:01:10;;;;;;;8.88;4.88;;;;;;;3.48;100.00;101743.63;5053981;28;20060;-68
2022/12/07 10:03:38;;;;;;;10.52;5.25;;;;;;;3.52;100.00;101748.97;5044197;28;20032;-68
2022/12/07 10:06:05;;;;;;;10.50;5.67;;;;;;;3.54;100.00;101742.25;5049510;28;20078;-68
2022/12/07 10:08:31;;;;;;;12.00;5.88;;;;;;;3.57;100.00;101740.78;5055033;28;20263;-68
2022/12/07 10:10:57;;;;;;;13.30;6.22;;;;;;;3.61;100.00;101726.41;5037235;28;20029;-68
2022/12/07 10:13:36;;;;;;;8.93;5.45;;;;;;;3.68;100.00;101731.19;5052950;28;20311;-69
2022/12/07 10:16:02;;;;;;;10.80;6.07;;;;;;;3.75;100.00;101724.72;5051517;28;20009;-69
2022/12/07 10:18:29;;;;;;;9.80;5.72;;;;;;;3.81;100.00;101720.88;5052242;28;20041;-69
2022/12/07 10:21:24;;;;;;;9.75;5.82;;;;;;;3.89;100.00;101721.38;5056662;28;20030;-69
2022/12/07 10:24:01;;;;;;;9.70;5.72;;;;;;;3.97;100.00;101729.63;5035906;28;20040;-68
2022/12/07 10:26:30;;;;;;;10.98;5.95;;;;;;;4.02;100.00;101720.47;5044596;28;20026;-69
2022/12/07 10:28:58;;;;;;;;;;;;;;;4.09;100.00;101719.19;5054006;28;20287;-68
2022/12/07 10:31:23;;;;;;;9.90;5.55;;;;;;;4.07;100.00;101713.94;5055547;28;19940;-68
2022/12/07 10:33:59;;;;;;;9.30;5.15;;;;;;;4.06;100.00;101709.56;5046752;28;20067;-68
2022/12/07 10:36:27;;;;;;;7.97;5.10;;;;;;;4.05;100.00;101705.19;5053519;28;20070;-68
2022/12/07 10:39:15;;;;;;;10.23;5.40;;;;;;;4.05;100.00;101704.31;5061744;28;20035;-68
2022/12/07 10:41:57;;;;;;;10.60;5.20;;;;;;;4.08;100.00;101707.09;5047052;28;20055;-68
2022/12/07 10:44:28;;;;;;;10.57;5.45;;;;;;;4.11;100.00;101707.28;5053545;28;20363;-68
2022/12/07 10:47:18;;;;;;;7.53;5.15;;;;;;;4.15;100.00;101698.94;5059268;28;20268;-62
2022/12/07 10:49:53;;;;;;;9.48;4.72;;;;;;;4.17;100.00;101702.50;5049732;28;20043;-62
2022/12/07 10:52:37;;;;;;;8.10;4.90;;;;;;;4.21;100.00;101701.91;5049764;28;20025;-62
2022/12/07 10:55:21;;;;;;;8.98;4.60;;;;;;;4.29;100.00;101699.81;5049354;28;20082;-62
2022/12/07 10:57:49;;;;;;;7.20;4.65;;;;;;;4.35;100.00;101698.50;5053700;28;20074;-62
2022/12/07 11:00:24;;;;;;;8.65;4.70;;;;;;;4.42;100.00;101688.56;5056735;28;20045;-62
2022/12/07 11:03:18;;;;;;;8.75;4.75;;;;;;;4.45;100.00;101683.63;5053052;28;20025;-63
2022/12/07 11:06:02;;;;;;;8.93;3.92;;;;;;;4.49;100.00;101685.56;5043906;28;20044;-62
2022/12/07 11:08:45;;;;;;;8.02;4.38;;;;;;;4.52;100.00;101676.34;5061405;28;20104;-62
2022/12/07 11:11:26;;;;;;;11.60;4.63;;;;;;;4.57;100.00;101674.03;5062048;28;20029;-62
2022/12/07 11:14:16;;;;;;;9.98;4.35;;;;;;;4.64;100.00;101670.16;5053942;28;20282;-62
2022/12/07 11:16:57;;;;;;;9.65;4.78;;;;;;;4.67;100.00;101671.19;5065455;28;20025;-68
2022/12/07 11:19:35;;;;;;;9.07;4.57;;;;;;;4.70;100.00;101668.81;5064167;28;20120;-68
2022/12/07 11:22:16;;;;;;;6.57;4.25;;;;;;;4.74;100.00;101659.56;5065741;28;20037;-67
2022/12/07 11:25:07;;;;;;;7.38;4.80;;;;;;;4.76;100.00;101670.88;5065832;28;20047;-68
2022/12/07 11:27:46;;;;;;;11.60;4.97;;;;;;;4.78;100.00;101666.72;5067008;28;20051;-68
2022/12/07 11:30:20;;;;;;;8.13;4.55;;;;;;;4.84;100.00;101671.34;5055705;28;20280;-68
2022/12/07 11:33:21;;;;;;;9.07;4.22;;;;;;;4.88;100.00;101661.28;5068291;28;20033;-68
2022/12/07 11:36:07;;;;;;;11.27;4.80;;;;;;;4.92;100.00;101657.19;5015944;28;20195;-68